Flight Track Log - Related Links

Times and Time Zones

All times are in EDT time to prevent confusion due to time zone crossing. See the AFR702 flight status page for this flight to view local times or setup timezone preferences in your user account.

Time Position Orientation Groundspeed Altitude Reporting Facility
EDT Latitude Longitude Course Direction KTS MPH feet Rate Location/Type
Thu 08:05:54 AM 48.9963 2.5650 264° West 176 203 600  Level FlightAware ADS-B
Thu 08:06:15 AM 48.9949 2.5391 265° West 176 203 1,500 2,667 Climbing FlightAware ADS-B
Thu 08:06:30 AM 48.9939 2.5201 265° West 178 205 2,200 2,364 Climbing FlightAware ADS-B
Thu 08:06:48 AM 48.9924 2.4983 264° West 183 211 2,800 2,057 Climbing FlightAware ADS-B
Thu 08:07:05 AM 48.9910 2.4764 264° West 181 208 3,400 1,886 Climbing FlightAware ADS-B
Thu 08:07:23 AM 48.9898 2.4521 266° West 194 223 3,900 1,273 Climbing FlightAware ADS-B
Thu 08:07:38 AM 48.9885 2.4304 265° West 215 247 4,100 581 Climbing FlightAware ADS-B
Thu 08:07:54 AM 48.9872 2.4050 266° West 237 273 4,200 1,111 Climbing FlightAware ADS-B
Thu 08:08:05 AM 48.9861 2.3859 265° West 247 284 4,600 1,929 Climbing FlightAware ADS-B
Thu 08:08:22 AM 48.9845 2.3566 265° West 260 299 5,100 2,545 Climbing FlightAware ADS-B
Thu 08:08:38 AM 48.9829 2.3282 265° West 254 292 6,000 3,484 Climbing FlightAware ADS-B
Thu 08:08:53 AM 48.9815 2.3019 265° West 246 283 6,900 3,789 Climbing FlightAware ADS-B
Thu 08:08:57 AM 48.9809 2.2938 264° West 243 280 7,200 3,818 Climbing FlightAware ADS-B
Thu 08:09:04 AM 48.9796 2.2832 259° West 239 275 7,600 3,273 Climbing FlightAware ADS-B
Thu 08:09:08 AM 48.9781 2.2758 253° West 239 275 7,800 2,000 Climbing FlightAware ADS-B
Thu 08:09:25 AM 48.9715 2.2493 249° West 247 284 8,300 2,276 Climbing FlightAware ADS-B
Thu 08:09:37 AM 48.9667 2.2291 250° West 248 285 8,900 2,750 Climbing FlightAware ADS-B
Thu 08:09:49 AM 48.9621 2.2090 251° West 250 288 9,400 2,368 Climbing FlightAware ADS-B
Thu 08:10:15 AM 48.9527 2.1661 252° West 254 292 10,400 2,545 Climbing FlightAware ADS-B
Thu 08:10:22 AM 48.9490 2.1537 246° West 254 292 10,800 2,400 Climbing FlightAware ADS-B
Thu 08:10:30 AM 48.9444 2.1425 238° Southwest 259 298 11,000 1,000 Climbing FlightAware ADS-B
Thu 08:10:34 AM 48.9411 2.1358 233° Southwest 266 306 11,000 600 Level FlightAware ADS-B
Thu 08:10:40 AM 48.9358 2.1270 228° Southwest 275 316 11,100 600 Climbing FlightAware ADS-B
Thu 08:10:44 AM 48.9324 2.1225 221° Southwest 280 322 11,100 667 Level FlightAware ADS-B
Thu 08:10:49 AM 48.9273 2.1168 216° Southwest 286 329 11,200 1,200 Climbing FlightAware ADS-B
Thu 08:10:59 AM 48.9152 2.1080 206° Southwest 300 345 11,400 1,200 Climbing FlightAware ADS-B
Thu 08:11:29 AM 48.8717 2.0898 195° South 336 387 12,000 571 Climbing FlightAware ADS-B
Thu 08:12:02 AM 48.8208 2.0676 196° South 345 397 12,000  Level FlightAware ADS-B
Thu 08:12:33 AM 48.7738 2.0467 196° South 344 396 12,000 774 Level FlightAware ADS-B
Thu 08:13:04 AM 48.7270 2.0261 196° South 348 400 12,800 2,172 Climbing FlightAware ADS-B
Thu 08:13:31 AM 48.6844 2.0073 196° South 354 407 14,100 2,667 Climbing FlightAware ADS-B
Thu 08:13:40 AM 48.6696 2.0031 191° South 360 414 14,400 2,400 Climbing FlightAware ADS-B
Thu 08:13:46 AM 48.6597 2.0022 183° South 365 420 14,700 2,500 Climbing FlightAware ADS-B
Thu 08:13:52 AM 48.6496 2.0028 178° South 369 425 14,900 2,432 Climbing FlightAware ADS-B
Thu 08:14:23 AM 48.5962 2.0126 173° South 380 437 16,200 2,381 Climbing FlightAware ADS-B
Thu 08:14:55 AM 48.5390 2.0233 173° South 389 448 17,400 2,261 Climbing FlightAware ADS-B
Thu 08:15:32 AM 48.4730 2.0355 173° South 394 453 18,800 2,400 Climbing FlightAware ADS-B
Thu 08:16:05 AM 48.4125 2.0466 173° South 400 460 20,200 2,215 Climbing FlightAware ADS-B
Thu 08:16:37 AM 48.3524 2.0574 173° South 411 473 21,200 1,714 Climbing FlightAware ADS-B
Thu 08:17:08 AM 48.2944 2.0675 173° South 422 486 22,000 1,700 Climbing FlightAware ADS-B
Thu 08:17:37 AM 48.2373 2.0777 173° South 431 496 22,900 2,136 Climbing FlightAware ADS-B
Thu 08:18:07 AM 48.1781 2.0958 168° South 436 502 24,100 2,100 Climbing FlightAware ADS-B
Thu 08:18:37 AM 48.1184 2.1160 167° South 440 506 25,000 1,869 Climbing FlightAware ADS-B
Thu 08:19:08 AM 48.0579 2.1353 168° South 440 506 26,000 1,935 Climbing FlightAware ADS-B
Thu 08:19:39 AM 47.9946 2.1569 167° South 443 510 27,000 1,826 Climbing FlightAware ADS-B
Thu 08:20:17 AM 47.9240 2.1820 167° South 444 511 28,100 1,590 Climbing FlightAware ADS-B
Thu 08:21:02 AM 47.8320 2.2130 167° South 450 518 29,200 1,553 Climbing FlightAware ADS-B
Thu 08:21:42 AM 47.7530 2.2390 168° South 450 518 30,300 1,575 Climbing FlightAware ADS-B
Thu 08:22:22 AM 47.6700 2.2670 167° South 451 519 31,300 1,412 Climbing FlightAware ADS-B
Thu 08:23:07 AM 47.5790 2.2980 167° South 453 521 32,300 1,200 Climbing FlightAware ADS-B
Thu 08:23:47 AM 47.4970 2.3260 167° South 458 527 33,000 494 Climbing FlightAware ADS-B
Thu 08:24:32 AM 47.4080 2.3560 167° South 467 537 33,000  Level FlightAware ADS-B
Thu 08:25:12 AM 47.3200 2.3860 167° South 467 537 33,000  Level FlightAware ADS-B
Thu 08:25:47 AM 47.2460 2.4110 167° South 468 539 33,000  Level FlightAware ADS-B
Thu 08:26:37 AM 47.1380 2.4470 167° South 468 539 33,000  Level FlightAware ADS-B
Thu 08:27:22 AM 47.0510 2.4760 167° South 468 539 33,000  Level FlightAware ADS-B
Thu 08:28:02 AM 46.9600 2.5060 167° South 463 533 33,000  Level FlightAware ADS-B
Thu 08:28:42 AM 46.8780 2.5330 167° South 445 512 33,000  Level FlightAware ADS-B
Thu 08:29:27 AM 46.7850 2.5520 172° South 433 498 33,000  Level FlightAware ADS-B
Thu 08:30:07 AM 46.7070 2.5580 177° South 432 497 33,000  Level FlightAware ADS-B
Thu 08:30:52 AM 46.6200 2.5650 177° South 436 502 33,000  Level FlightAware ADS-B
Thu 08:31:32 AM 46.5400 2.5720 177° South 439 505 33,000  Level FlightAware ADS-B
Thu 08:32:12 AM 46.4580 2.5790 177° South 440 506 33,000  Level FlightAware ADS-B
Thu 08:32:57 AM 46.3650 2.5870 177° South 442 509 33,000  Level FlightAware ADS-B
Thu 08:33:42 AM 46.2760 2.5940 177° South 447 514 33,000  Level FlightAware ADS-B
Thu 08:34:22 AM 46.1900 2.6010 177° South 452 520 33,000  Level FlightAware ADS-B
Thu 08:34:52 AM 46.1320 2.6060 177° South 452 520 33,000  Level FlightAware ADS-B
Thu 08:35:47 AM 46.0100 2.6160 177° South 451 519 33,000  Level FlightAware ADS-B
Thu 08:36:42 AM 45.9070 2.6260 176° South 451 519 33,000  Level FlightAware ADS-B
Thu 08:37:22 AM 45.8130 2.6320 177° South 451 519 33,000  Level FlightAware ADS-B
Thu 08:38:07 AM 45.7260 2.6390 177° South 451 519 33,000  Level FlightAware ADS-B
Thu 08:38:47 AM 45.6370 2.6460 177° South 452 520 33,000  Level FlightAware ADS-B
Thu 08:39:32 AM 45.5420 2.6540 177° South 452 520 33,000  Level FlightAware ADS-B
Thu 08:40:22 AM 45.4410 2.6630 176° South 453 521 33,000  Level FlightAware ADS-B
Thu 08:41:02 AM 45.3700 2.6700 176° South 453 521 33,000  Level FlightAware ADS-B
Thu 08:41:52 AM 45.2810 2.6790 176° South 453 521 33,000  Level FlightAware ADS-B
Thu 08:42:32 AM 45.1740 2.6390 195° South 454 522 33,000  Level FlightAware ADS-B
Thu 08:43:12 AM 45.0880 2.6530 173° South 458 527 33,000  Level FlightAware ADS-B
Thu 08:43:57 AM 44.9880 2.6590 178° South 459 528 33,000  Level FlightAware ADS-B
Thu 08:44:37 AM 44.9030 2.6630 178° South 458 527 33,000  Level FlightAware ADS-B
Thu 08:45:22 AM 44.8080 2.6700 177° South 462 532 33,000  Level FlightAware ADS-B
Thu 08:46:02 AM 44.7230 2.6720 179° South 461 531 33,000  Level FlightAware ADS-B
Thu 08:46:42 AM 44.6340 2.6770 178° South 468 539 33,000  Level FlightAware ADS-B
Thu 08:47:27 AM 44.5390 2.6860 176° South 475 547 33,000  Level FlightAware ADS-B
Thu 08:48:07 AM 44.4500 2.6940 176° South 480 552 33,000  Level FlightAware ADS-B
Thu 08:48:52 AM 44.3500 2.7010 177° South 482 555 33,000  Level FlightAware ADS-B
Thu 08:49:32 AM 44.2580 2.7080 177° South 484 557 33,000  Level FlightAware ADS-B
Thu 08:50:12 AM 44.1690 2.7180 175° South 484 557 33,000  Level FlightAware ADS-B
Thu 08:50:57 AM 44.0700 2.7280 176° South 483 556 33,000  Level FlightAware ADS-B
Thu 08:51:37 AM 43.9820 2.7370 176° South 483 556 33,000  Level FlightAware ADS-B
Thu 08:52:17 AM 43.8920 2.7470 175° South 483 556 33,000  Level FlightAware ADS-B
Thu 08:53:02 AM 43.7930 2.7580 175° South 482 555 33,000  Level FlightAware ADS-B
Thu 08:53:42 AM 43.7040 2.7670 176° South 483 556 33,000  Level FlightAware ADS-B
Thu 08:54:27 AM 43.6030 2.7780 175° South 482 555 33,000  Level FlightAware ADS-B
Thu 08:55:07 AM 43.5140 2.7870 176° South 482 555 33,000  Level FlightAware ADS-B
Thu 08:55:52 AM 43.4140 2.7980 175° South 483 556 33,000  Level FlightAware ADS-B
Thu 08:56:32 AM 43.3260 2.8070 176° South 482 555 33,000  Level FlightAware ADS-B
Thu 08:57:12 AM 43.2340 2.8170 175° South 480 552 33,000  Level FlightAware ADS-B
Thu 08:57:57 AM 43.1360 2.8270 176° South 479 551 33,000  Level FlightAware ADS-B
Thu 08:58:37 AM 43.0470 2.8360 176° South 478 550 33,000  Level FlightAware ADS-B
Thu 08:59:22 AM 42.9500 2.8460 176° South 479 551 33,000  Level FlightAware ADS-B
Thu 08:59:57 AM 42.8720 2.8550 175° South 479 551 33,000  Level FlightAware ADS-B
Thu 09:00:42 AM 42.7730 2.8660 175° South 485 558 33,000  Level FlightAware ADS-B
Thu 09:01:27 AM 42.6720 2.9000 166° South 500 575 33,000  Level FlightAware ADS-B
Thu 09:02:07 AM 42.5840 2.9380 162° South 503 579 33,000  Level FlightAware ADS-B
Thu 09:02:47 AM 42.4940 2.9770 162° South 506 582 33,000  Level FlightAware ADS-B
Thu 09:03:27 AM 42.4070 3.0150 162° South 501 577 33,000  Level FlightAware ADS-B
Thu 09:04:12 AM 42.3130 3.0550 163° South 498 573 33,000  Level FlightAware ADS-B
Thu 09:04:52 AM 42.2230 3.0930 163° South 487 560 33,000  Level FlightAware ADS-B
Thu 09:05:32 AM 42.1410 3.1280 162° South 482 555 33,000  Level FlightAware ADS-B
Thu 09:06:17 AM 42.0390 3.1700 163° South 482 555 33,000  Level FlightAware ADS-B
Thu 09:07:02 AM 41.9430 3.2030 166° South 476 548 33,000  Level FlightAware ADS-B
Thu 09:07:57 AM 41.8220 3.2030 180° South 467 537 33,000  Level FlightAware ADS-B
Thu 09:08:27 AM 41.7570 3.2000 182° South 468 539 33,000  Level FlightAware ADS-B
Thu 09:09:07 AM 41.6700 3.1950 182° South 470 541 33,000  Level FlightAware ADS-B
Thu 09:09:42 AM 41.5950 3.1920 182° South 475 547 33,000  Level FlightAware ADS-B
Thu 09:10:17 AM 41.5160 3.1880 182° South 475 547 33,000  Level FlightAware ADS-B
Thu 09:10:57 AM 41.4290 3.1840 182° South 474 545 33,000  Level FlightAware ADS-B
Thu 09:11:42 AM 41.3340 3.1800 182° South 473 544 33,000  Level FlightAware ADS-B
Thu 09:12:22 AM 41.2450 3.1750 182° South 473 544 33,000  Level FlightAware ADS-B
Thu 09:13:07 AM 41.1440 3.1710 182° South 477 549 33,000  Level FlightAware ADS-B
Thu 09:13:52 AM 41.0460 3.1660 182° South 480 552 33,000  Level FlightAware ADS-B
Thu 09:14:32 AM 40.9590 3.1620 182° South 479 551 33,000  Level FlightAware ADS-B
Thu 09:15:12 AM 40.8680 3.1580 182° South 484 557 33,000  Level FlightAware ADS-B
Thu 09:15:52 AM 40.7790 3.1540 182° South 485 558 33,000  Level FlightAware ADS-B
Thu 09:16:37 AM 40.6760 3.1490 182° South 486 559 33,000  Level FlightAware ADS-B
Thu 09:17:17 AM 40.5860 3.1450 182° South 485 558 33,000  Level FlightAware ADS-B
Thu 09:18:07 AM 40.4730 3.1390 182° South 486 559 33,000  Level FlightAware ADS-B
Thu 09:18:52 AM 40.3770 3.1350 182° South 487 560 33,000  Level FlightAware ADS-B
Thu 09:19:37 AM 40.2720 3.1300 182° South 489 563 33,000  Level FlightAware ADS-B
Thu 09:20:17 AM 40.1900 3.1260 182° South 489 563 33,000  Level FlightAware ADS-B
Thu 09:21:02 AM 40.0800 3.1220 182° South 490 564 33,000  Level FlightAware ADS-B
Thu 09:23:00 AM 39.8364 3.0535 192° South  Level Estimated
Thu 09:24:00 AM 39.7125 3.0189 192° South  Level Estimated
Thu 09:24:17 AM 39.6870 2.9400 192° South 464 534 33,000  Level FlightAware ADS-B
Thu 09:26:00 AM 39.4742 2.8815 192° South  Level Estimated
Thu 09:27:00 AM 39.3502 2.8476 192° South  Level Estimated
Thu 09:28:00 AM 39.2262 2.8138 192° South  Level Estimated
Thu 09:28:07 AM 39.2250 2.7020 192° South 479 551 33,000  Level FlightAware ADS-B
Thu 09:30:00 AM 38.9913 2.6397 192° South  Level Estimated
Thu 09:30:07 AM 38.9730 2.6350 192° South 480 552 33,000  Level FlightAware ADS-B
Thu 09:30:47 AM 38.8880 2.6120 192° South 477 549 33,000  Level FlightAware ADS-B
Thu 09:31:32 AM 38.7910 2.5860 192° South 479 551 33,000  Level FlightAware ADS-B
Thu 09:32:12 AM 38.7030 2.5630 192° South 474 545 33,000  Level FlightAware ADS-B
Thu 09:32:57 AM 38.6040 2.5370 192° South 474 545 33,000  Level FlightAware ADS-B
Thu 09:33:27 AM 38.5390 2.5200 192° South 484 557 33,000  Level FlightAware ADS-B
Thu 09:34:17 AM 38.4230 2.4900 191° South 478 550 33,000  Level FlightAware ADS-B
Thu 09:35:02 AM 38.3290 2.4650 192° South 488 562 33,000  Level FlightAware ADS-B
Thu 09:35:37 AM 38.2470 2.4410 193° South 485 558 33,000  Level FlightAware ADS-B
Thu 09:36:27 AM 38.1370 2.4040 195° South 487 560 33,000  Level FlightAware ADS-B
Thu 09:37:02 AM 38.0700 2.3810 195° South 487 560 33,000  Level FlightAware ADS-B
Thu 09:37:42 AM 37.9960 2.3560 195° South 487 560 33,000  Level FlightAware ADS-B
Thu 09:38:32 AM 37.8630 2.3160 193° South 480 552 33,000  Level FlightAware ADS-B
Thu 09:39:12 AM 37.7840 2.2910 194° South 480 552 33,000  Level FlightAware ADS-B
Thu 09:39:57 AM 37.6840 2.2580 195° South 479 551 33,000  Level FlightAware ADS-B
Thu 09:40:32 AM 37.6110 2.2340 195° South 481 554 33,000  Level FlightAware ADS-B
Thu 09:41:17 AM 37.5100 2.2010 195° South 483 556 33,000  Level FlightAware ADS-B
Thu 09:42:02 AM 37.4060 2.1670 195° South 483 556 33,000  Level FlightAware ADS-B
Thu 09:42:42 AM 37.3200 2.1390 195° South 481 554 33,000  Level FlightAware ADS-B
Thu 09:43:22 AM 37.2480 2.1160 194° South 481 554 33,000  Level FlightAware ADS-B
Thu 09:44:02 AM 37.1460 2.0820 195° South 480 552 33,000  Level FlightAware ADS-B
Thu 09:44:42 AM 37.0680 2.0450 201° Southwest 467 537 33,000  Level FlightAware ADS-B
Thu 09:45:27 AM 36.9860 2.0030 202° Southwest 467 537 33,000  Level FlightAware ADS-B
Thu 09:46:07 AM 36.9180 1.9690 202° Southwest 467 537 33,000  Level FlightAware ADS-B
Thu 09:46:47 AM 36.8500 1.9350 202° Southwest 467 537 33,000  Level FlightAware ADS-B
Thu 09:47:37 AM 36.7650 1.8920 202° Southwest 467 537 33,000  Level FlightAware ADS-B
Thu 09:48:17 AM 36.6960 1.8570 202° Southwest 467 537 33,000 324 Level FlightAware ADS-B
Thu 09:48:37 AM 36.5760 1.8420 186° South 34,000 414 Climbing FlightAware ADS-B
Thu 09:49:42 AM 36.4270 1.8040 192° South 34,000  Level FlightAware ADS-B
Thu 09:50:42 AM 36.2980 1.7690 192° South 477 549 34,000  Level FlightAware ADS-B
Thu 09:51:27 AM 36.2140 1.7460 192° South 477 549 34,000  Level FlightAware ADS-B
Thu 09:52:17 AM 36.1220 1.7220 192° South 477 549 34,000  Level FlightAware ADS-B
Thu 09:52:57 AM 36.0030 1.6890 193° South 34,000  Level FlightAware ADS-B
Thu 09:54:07 AM 35.8450 1.6470 192° South 34,000  Level FlightAware ADS-B
Thu 09:54:52 AM 35.7450 1.6200 192° South 481 554 34,000  Level FlightAware ADS-B
Thu 09:55:27 AM 35.6760 1.6020 192° South 490 564 34,000  Level FlightAware ADS-B
Thu 09:56:07 AM 35.6000 1.5820 192° South 490 564 34,000  Level FlightAware ADS-B
Thu 09:56:57 AM 35.5060 1.5570 192° South 490 564 34,000  Level FlightAware ADS-B
Thu 09:57:37 AM 35.4310 1.5380 192° South 490 564 34,000  Level FlightAware ADS-B
Thu 09:58:17 AM 35.3550 1.5180 192° South 490 564 34,000  Level FlightAware ADS-B
Thu 09:58:57 AM 35.2800 1.4980 192° South 490 564 34,000  Level FlightAware ADS-B
Thu 09:59:37 AM 35.2040 1.4790 192° South 490 564 34,000  Level FlightAware ADS-B
Thu 10:00:27 AM 35.1100 1.4540 192° South 490 564 34,000  Level FlightAware ADS-B
Thu 10:01:07 AM 35.0350 1.4350 192° South 490 564 34,000  Level FlightAware ADS-B
Thu 10:01:52 AM 34.8120 1.3700 193° South 34,000  Level FlightAware ADS-B
Thu 10:04:00 AM 34.5486 1.3101 191° South  Level Estimated
Thu 10:05:00 AM 34.4251 1.2822 191° South  Level Estimated
Thu 10:06:00 AM 34.3016 1.2543 191° South  Level Estimated
Thu 10:07:00 AM 34.1780 1.2265 191° South  Level Estimated
Thu 10:08:00 AM 34.0545 1.1988 191° South  Level Estimated
Thu 10:09:00 AM 33.9310 1.1712 191° South  Level Estimated
Thu 10:10:00 AM 33.8075 1.1436 190° South  Level Estimated
Thu 10:11:00 AM 33.6839 1.1162 190° South  Level Estimated
Thu 10:12:00 AM 33.5604 1.0888 190° South  Level Estimated
Thu 10:13:00 AM 33.4368 1.0615 190° South  Level Estimated
Thu 10:14:00 AM 33.3133 1.0343 190° South  Level Estimated
Thu 10:15:00 AM 33.1897 1.0071 190° South  Level Estimated
Thu 10:16:00 AM 33.0662 0.9800 190° South  Level Estimated
Thu 10:17:00 AM 32.9426 0.9530 190° South  Level Estimated
Thu 10:18:00 AM 32.8190 0.9261 190° South  Level Estimated
Thu 10:19:00 AM 32.6954 0.8993 190° South  Level Estimated
Thu 10:20:00 AM 32.5718 0.8725 190° South  Level Estimated
Thu 10:21:00 AM 32.4482 0.8458 190° South  Level Estimated
Thu 10:22:00 AM 32.3246 0.8192 190° South  Level Estimated
Thu 10:23:00 AM 32.2010 0.7926 190° South  Level Estimated
Thu 10:24:00 AM 32.0774 0.7661 190° South  Level Estimated
Thu 10:25:00 AM 31.9538 0.7397 190° South  Level Estimated
Thu 10:26:00 AM 31.8302 0.7134 190° South  Level Estimated
Thu 10:27:00 AM 31.7066 0.6871 190° South  Level Estimated
Thu 10:28:00 AM 31.5829 0.6609 190° South  Level Estimated
Thu 10:29:00 AM 31.4593 0.6348 190° South  Level Estimated
Thu 10:30:00 AM 31.3356 0.6087 190° South  Level Estimated
Thu 10:31:00 AM 31.2120 0.5827 190° South  Level Estimated
Thu 10:32:00 AM 31.0883 0.5568 190° South  Level Estimated
Thu 10:33:00 AM 30.9647 0.5309 190° South  Level Estimated
Thu 10:34:00 AM 30.8410 0.5052 190° South  Level Estimated
Thu 10:35:00 AM 30.7174 0.4794 190° South  Level Estimated
Thu 10:36:00 AM 30.5937 0.4538 190° South  Level Estimated
Thu 10:37:00 AM 30.4700 0.4282 190° South  Level Estimated
Thu 10:38:00 AM 30.3463 0.4026 190° South  Level Estimated
Thu 10:39:00 AM 30.2226 0.3772 190° South  Level Estimated
Thu 10:40:00 AM 30.0989 0.3518 190° South  Level Estimated
Thu 10:41:00 AM 29.9752 0.3264 190° South  Level Estimated
Thu 10:42:00 AM 29.8515 0.3012 190° South  Level Estimated
Thu 10:43:00 AM 29.7278 0.2760 190° South  Level Estimated
Thu 10:44:00 AM 29.6041 0.2508 190° South  Level Estimated
Thu 10:45:00 AM 29.4804 0.2257 190° South  Level Estimated
Thu 10:46:00 AM 29.3567 0.2007 190° South  Level Estimated
Thu 10:47:00 AM 29.2329 0.1757 190° South  Level Estimated
Thu 10:48:00 AM 29.1092 0.1508 190° South  Level Estimated
Thu 10:49:00 AM 28.9855 0.1260 190° South  Level Estimated
Thu 10:50:00 AM 28.8617 0.1012 190° South  Level Estimated
Thu 10:51:00 AM 28.7380 0.0764 190° South  Level Estimated
Thu 10:52:00 AM 28.6142 0.0518 190° South  Level Estimated
Thu 10:53:00 AM 28.4905 0.0272 190° South  Level Estimated
Thu 10:54:00 AM 28.3667 0.0026 190° South  Level Estimated
Thu 10:55:00 AM 28.2429 -0.0219 190° South  Level Estimated
Thu 10:56:00 AM 28.1192 -0.0463 190° South  Level Estimated
Thu 10:57:00 AM 27.9954 -0.0707 190° South  Level Estimated
Thu 10:58:00 AM 27.8716 -0.0950 190° South  Level Estimated
Thu 10:59:00 AM 27.7478 -0.1193 190° South  Level Estimated
Thu 11:00:00 AM 27.6241 -0.1435 190° South  Level Estimated
Thu 11:01:00 AM 27.5003 -0.1677 190° South  Level Estimated
Thu 11:02:00 AM 27.3765 -0.1918 190° South  Level Estimated
Thu 11:03:00 AM 27.2527 -0.2158 190° South  Level Estimated
Thu 11:04:00 AM 27.1289 -0.2398 190° South  Level Estimated
Thu 11:05:00 AM 27.0051 -0.2638 190° South  Level Estimated
Thu 11:06:00 AM 26.8813 -0.2877 190° South  Level Estimated
Thu 11:07:00 AM 26.7574 -0.3115 190° South  Level Estimated
Thu 11:08:00 AM 26.6336 -0.3353 190° South  Level Estimated
Thu 11:09:00 AM 26.5098 -0.3591 190° South  Level Estimated
Thu 11:10:00 AM 26.3860 -0.3828 190° South  Level Estimated
Thu 11:11:00 AM 26.2621 -0.4064 190° South  Level Estimated
Thu 11:12:00 AM 26.1383 -0.4300 190° South  Level Estimated
Thu 11:13:00 AM 26.0145 -0.4535 190° South  Level Estimated
Thu 11:14:00 AM 25.8906 -0.4770 190° South  Level Estimated
Thu 11:15:00 AM 25.7668 -0.5005 190° South  Level Estimated
Thu 11:16:00 AM 25.6429 -0.5238 190° South  Level Estimated
Thu 11:17:00 AM 25.5191 -0.5472 190° South  Level Estimated
Thu 11:18:00 AM 25.3952 -0.5705 190° South  Level Estimated
Thu 11:19:00 AM 25.2714 -0.5937 190° South  Level Estimated
Thu 11:20:00 AM 25.1475 -0.6169 190° South  Level Estimated
Thu 11:21:00 AM 25.0236 -0.6401 190° South  Level Estimated
Thu 11:22:00 AM 24.8998 -0.6632 190° South  Level Estimated
Thu 11:23:00 AM 24.7759 -0.6862 190° South  Level Estimated
Thu 11:24:00 AM 24.6520 -0.7092 190° South  Level Estimated
Thu 11:25:00 AM 24.5281 -0.7322 190° South  Level Estimated
Thu 11:26:00 AM 24.4042 -0.7551 190° South  Level Estimated
Thu 11:27:00 AM 24.2803 -0.7780 190° South  Level Estimated
Thu 11:28:00 AM 24.1565 -0.8008 190° South  Level Estimated
Thu 11:29:00 AM 24.0326 -0.8236 190° South  Level Estimated
Thu 11:30:00 AM 23.9087 -0.8463 190° South  Level Estimated
Thu 11:31:00 AM 23.7848 -0.8690 190° South  Level Estimated
Thu 11:32:00 AM 23.6609 -0.8917 190° South  Level Estimated
Thu 11:33:00 AM 23.5369 -0.9143 189° South  Level Estimated
Thu 11:34:00 AM 23.4130 -0.9369 189° South  Level Estimated
Thu 11:35:00 AM 23.2891 -0.9594 189° South  Level Estimated
Thu 11:36:00 AM 23.1652 -0.9819 189° South  Level Estimated
Thu 11:37:00 AM 23.0413 -1.0043 189° South  Level Estimated
Thu 11:38:00 AM 22.9174 -1.0267 189° South  Level Estimated
Thu 11:39:00 AM 22.7934 -1.0491 189° South  Level Estimated
Thu 11:40:00 AM 22.6695 -1.0714 189° South  Level Estimated
Thu 11:41:00 AM 22.5456 -1.0937 189° South  Level Estimated
Thu 11:42:00 AM 22.4216 -1.1159 189° South  Level Estimated
Thu 11:43:00 AM 22.2977 -1.1381 189° South  Level Estimated
Thu 11:44:00 AM 22.1737 -1.1603 189° South  Level Estimated
Thu 11:45:00 AM 22.0498 -1.1824 189° South  Level Estimated
Thu 11:46:00 AM 21.9258 -1.2045 189° South  Level Estimated
Thu 11:47:00 AM 21.8019 -1.2265 189° South  Level Estimated
Thu 11:48:00 AM 21.6779 -1.2486 189° South  Level Estimated
Thu 11:49:00 AM 21.5540 -1.2705 189° South  Level Estimated
Thu 11:50:00 AM 21.4300 -1.2925 189° South  Level Estimated
Thu 11:51:00 AM 21.3060 -1.3144 189° South  Level Estimated
Thu 11:52:00 AM 21.1821 -1.3362 189° South  Level Estimated
Thu 11:53:00 AM 21.0581 -1.3580 189° South  Level Estimated
Thu 11:54:00 AM 20.9341 -1.3798 189° South  Level Estimated
Thu 11:55:00 AM 20.8102 -1.4016 189° South  Level Estimated
Thu 11:56:00 AM 20.6862 -1.4233 189° South  Level Estimated
Thu 11:57:00 AM 20.5622 -1.4450 189° South  Level Estimated
Thu 11:58:00 AM 20.4382 -1.4666 189° South  Level Estimated
Thu 11:59:00 AM 20.3142 -1.4882 189° South  Level Estimated
Thu 12:00:00 PM 20.1903 -1.5098 189° South  Level Estimated
Thu 12:01:00 PM 20.0663 -1.5313 189° South  Level Estimated
Thu 12:02:00 PM 19.9423 -1.5528 189° South  Level Estimated
Thu 12:03:00 PM 19.8183 -1.5743 189° South  Level Estimated
Thu 12:04:00 PM 19.6943 -1.5957 189° South  Level Estimated
Thu 12:05:00 PM 19.5703 -1.6171 189° South  Level Estimated
Thu 12:06:00 PM 19.4463 -1.6385 189° South  Level Estimated
Thu 12:07:00 PM 19.3223 -1.6598 189° South  Level Estimated
Thu 12:08:00 PM 19.1982 -1.6811 189° South  Level Estimated
Thu 12:09:00 PM 19.0742 -1.7024 189° South  Level Estimated
Thu 12:10:00 PM 18.9502 -1.7237 189° South  Level Estimated
Thu 12:11:00 PM 18.8262 -1.7449 189° South  Level Estimated
Thu 12:12:00 PM 18.7022 -1.7660 189° South  Level Estimated
Thu 12:13:00 PM 18.5782 -1.7872 189° South  Level Estimated
Thu 12:14:00 PM 18.4541 -1.8083 189° South  Level Estimated
Thu 12:15:00 PM 18.3301 -1.8294 189° South  Level Estimated
Thu 12:16:00 PM 18.2061 -1.8505 189° South  Level Estimated
Thu 12:17:00 PM 18.0821 -1.8715 189° South  Level Estimated
Thu 12:18:00 PM 17.9580 -1.8925 189° South  Level Estimated
Thu 12:19:00 PM 17.8340 -1.9135 189° South  Level Estimated
Thu 12:20:00 PM 17.7100 -1.9344 189° South  Level Estimated
Thu 12:21:00 PM 17.5859 -1.9553 189° South  Level Estimated
Thu 12:22:00 PM 17.4619 -1.9762 189° South  Level Estimated
Thu 12:23:00 PM 17.3378 -1.9971 189° South  Level Estimated
Thu 12:24:00 PM 17.2138 -2.0179 189° South  Level Estimated
Thu 12:25:00 PM 17.0897 -2.0387 189° South  Level Estimated
Thu 12:26:00 PM 16.9657 -2.0594 189° South  Level Estimated
Thu 12:27:00 PM 16.8416 -2.0802 189° South  Level Estimated
Thu 12:28:00 PM 16.7176 -2.1009 189° South  Level Estimated
Thu 12:29:00 PM 16.5935 -2.1216 189° South  Level Estimated
Thu 12:30:00 PM 16.4695 -2.1422 189° South  Level Estimated
Thu 12:31:00 PM 16.3454 -2.1629 189° South  Level Estimated
Thu 12:32:00 PM 16.2213 -2.1835 189° South  Level Estimated
Thu 12:33:00 PM 16.0973 -2.2041 189° South  Level Estimated
Thu 12:34:00 PM 15.9732 -2.2246 189° South  Level Estimated
Thu 12:35:00 PM 15.8491 -2.2452 189° South  Level Estimated
Thu 12:36:00 PM 15.7251 -2.2657 189° South  Level Estimated
Thu 12:37:00 PM 15.6010 -2.2861 189° South  Level Estimated
Thu 12:38:00 PM 15.4769 -2.3066 189° South  Level Estimated
Thu 12:39:00 PM 15.3529 -2.3270 189° South  Level Estimated
Thu 12:40:00 PM 15.2288 -2.3474 189° South  Level Estimated
Thu 12:41:00 PM 15.1047 -2.3678 189° South  Level Estimated
Thu 12:42:00 PM 14.9806 -2.3882 189° South  Level Estimated
Thu 12:43:00 PM 14.8565 -2.4085 189° South  Level Estimated
Thu 12:44:00 PM 14.7325 -2.4288 189° South  Level Estimated
Thu 12:45:00 PM 14.6084 -2.4491 189° South  Level Estimated
Thu 12:46:00 PM 14.4843 -2.4694 189° South  Level Estimated
Thu 12:47:00 PM 14.3602 -2.4896 189° South  Level Estimated
Thu 12:48:00 PM 14.2361 -2.5099 189° South  Level Estimated
Thu 12:49:00 PM 14.1120 -2.5301 189° South  Level Estimated
Thu 12:50:00 PM 13.9879 -2.5502 189° South  Level Estimated
Thu 12:51:00 PM 13.8638 -2.5704 189° South  Level Estimated
Thu 12:52:00 PM 13.7397 -2.5905 189° South  Level Estimated
Thu 12:53:00 PM 13.6156 -2.6106 189° South  Level Estimated
Thu 12:54:00 PM 13.4915 -2.6307 189° South  Level Estimated
Thu 12:55:00 PM 13.3674 -2.6508 189° South  Level Estimated
Thu 12:56:00 PM 13.2433 -2.6708 189° South  Level Estimated
Thu 12:57:00 PM 13.1192 -2.6909 189° South  Level Estimated
Thu 12:58:00 PM 12.9951 -2.7109 189° South  Level Estimated
Thu 12:59:00 PM 12.8710 -2.7309 189° South  Level Estimated
Thu 01:00:00 PM 12.7469 -2.7508 189° South  Level Estimated
Thu 01:01:00 PM 12.6228 -2.7708 189° South  Level Estimated
Thu 01:02:00 PM 12.4986 -2.7907 189° South  Level Estimated
Thu 01:03:00 PM 12.3745 -2.8106 189° South  Level Estimated
Thu 01:04:00 PM 12.2504 -2.8305 189° South  Level Estimated
Thu 01:05:00 PM 12.1263 -2.8504 189° South  Level Estimated
Thu 01:06:00 PM 12.0022 -2.8702 189° South  Level Estimated
Thu 01:07:00 PM 11.8780 -2.8901 189° South  Level Estimated
Thu 01:08:00 PM 11.7539 -2.9099 189° South  Level Estimated
Thu 01:09:00 PM 11.6298 -2.9297 189° South  Level Estimated
Thu 01:10:00 PM 11.5057 -2.9495 189° South  Level Estimated
Thu 01:11:00 PM 11.3815 -2.9693 189° South  Level Estimated
Thu 01:12:00 PM 11.2574 -2.9890 189° South  Level Estimated
Thu 01:13:00 PM 11.1333 -3.0087 189° South  Level Estimated
Thu 01:14:00 PM 11.0092 -3.0285 189° South  Level Estimated
Thu 01:15:00 PM 10.8850 -3.0482 189° South  Level Estimated
Thu 01:16:00 PM 10.7609 -3.0678 189° South  Level Estimated
Thu 01:17:00 PM 10.6368 -3.0875 189° South  Level Estimated
Thu 01:18:00 PM 10.5126 -3.1072 189° South  Level Estimated
Thu 01:19:00 PM 10.3885 -3.1268 189° South  Level Estimated
Thu 01:20:00 PM 10.2643 -3.1464 189° South  Level Estimated
Thu 01:21:00 PM 10.1402 -3.1660 189° South  Level Estimated
Thu 01:22:00 PM 10.0161 -3.1856 189° South  Level Estimated
Thu 01:23:00 PM 9.8919 -3.2052 189° South  Level Estimated
Thu 01:24:00 PM 9.7678 -3.2247 189° South  Level Estimated
Thu 01:25:00 PM 9.6437 -3.2443 189° South  Level Estimated
Thu 01:26:00 PM 9.5195 -3.2638 189° South  Level Estimated
Thu 01:27:00 PM 9.3954 -3.2833 189° South  Level Estimated
Thu 01:28:00 PM 9.2712 -3.3028 189° South  Level Estimated
Thu 01:29:00 PM 9.1471 -3.3223 189° South  Level Estimated
Thu 01:30:00 PM 9.0229 -3.3418 189° South  Level Estimated
Thu 01:31:00 PM 8.8988 -3.3612 189° South  Level Estimated
Thu 01:32:00 PM 8.7746 -3.3807 189° South  Level Estimated
Thu 01:33:00 PM 8.6505 -3.4001 189° South  Level Estimated
Thu 01:34:00 PM 8.5263 -3.4195 189° South  Level Estimated
Thu 01:35:00 PM 8.4022 -3.4390 189° South  Level Estimated
Thu 01:36:00 PM 8.2780 -3.4583 189° South  Level Estimated
Thu 01:37:00 PM 8.1538 -3.4777 189° South  Level Estimated
Thu 01:38:00 PM 8.0297 -3.4971 189° South  Level Estimated
Thu 01:39:00 PM 7.9055 -3.5165 189° South  Level Estimated
Thu 01:40:00 PM 7.7814 -3.5358 189° South  Level Estimated
Thu 01:41:00 PM 7.6572 -3.5552 189° South  Level Estimated
Thu 01:42:00 PM 7.5331 -3.5745 189° South  Level Estimated
Thu 01:43:00 PM 7.4089 -3.5938 189° South  Level Estimated
Thu 01:44:00 PM 7.2847 -3.6131 189° South  Level Estimated
Thu 01:45:00 PM 7.1606 -3.6324 189° South  Level Estimated
Thu 01:46:00 PM 7.0364 -3.6517 189° South  Level Estimated
Thu 01:47:00 PM 6.9123 -3.6709 189° South  Level Estimated
Thu 01:48:00 PM 6.7881 -3.6902 189° South  Level Estimated
Thu 01:49:00 PM 6.6639 -3.7095 189° South  Level Estimated
Thu 01:50:00 PM 6.5397 -3.7287 189° South  Level Estimated
Thu 01:51:00 PM 6.4163 -3.7478 189° South  Level Estimated
Thu 01:52:00 PM 6.2928 -3.7669 189° South  Level Estimated
Thu 01:53:00 PM 6.1694 -3.7861 189° South  Level Estimated
Thu 01:54:00 PM 6.0459 -3.8052 189° South  Level Estimated
Thu 01:55:00 PM 5.9224 -3.8242 189° South  Level Estimated
Thu 01:56:00 PM 5.7989 -3.8433 189° South  Level Estimated
Thu 01:57:00 PM 5.6755 -3.8624 189° South  Level Estimated

Login

Don't have an account? Register now (free) for customized features, flight alerts, and more!